CEB493 RPLL-RPVI
Flight info
| Callsign | CEB493 |
|---|---|
| Flight time | 0h 48m |
| Altitude | 33000 |
| Route | VERDE4V VERDE W24 TAPER B472 LAMBO LAMBO2S |
| Aircraft | A20N/M-SDE2E3FGHIJ1RWXY/LB1 |
Departure
| Time | 2026-04-18 03:00 |
|---|---|
| Airport | Ninoy Aquino International Airport (RPLL) |
Arrival
| Time | 2026-04-18 03:48 |
|---|---|
| Airport | Iloilo International Airport (RPVI) |
| Time | Latitude | Longitude | Altitude | Speed | Heading |
|---|---|---|---|---|---|
| 2026-04-18 02:22 | 14.52385 | 121.00738 | 82 ft | 0 kts | 44° |
| 2026-04-18 02:49 | 14.52381 | 121.00734 | 82 ft | 2 kts | 46° |
| 2026-04-18 02:49 | 14.52370 | 121.00723 | 82 ft | 2 kts | 43° |
| 2026-04-18 02:49 | 14.52359 | 121.00712 | 82 ft | 2 kts | 45° |
| 2026-04-18 02:50 | 14.52349 | 121.00701 | 82 ft | 2 kts | 44° |
| 2026-04-18 02:50 | 14.52336 | 121.00693 | 82 ft | 2 kts | 5° |
| 2026-04-18 02:50 | 14.52321 | 121.00696 | 82 ft | 2 kts | 329° |
| 2026-04-18 02:50 | 14.52310 | 121.00706 | 82 ft | 2 kts | 310° |
| 2026-04-18 02:51 | 14.52299 | 121.00718 | 82 ft | 2 kts | 316° |
| 2026-04-18 02:51 | 14.52295 | 121.00723 | 82 ft | 0 kts | 314° |
| 2026-04-18 02:57 | 14.52296 | 121.00722 | 82 ft | 0 kts | 314° |
| 2026-04-18 02:57 | 14.52312 | 121.00704 | 82 ft | 5 kts | 315° |
| 2026-04-18 02:57 | 14.52346 | 121.00670 | 82 ft | 8 kts | 315° |
| 2026-04-18 02:57 | 14.52397 | 121.00617 | 82 ft | 12 kts | 314° |
| 2026-04-18 02:58 | 14.52461 | 121.00552 | 82 ft | 12 kts | 316° |
| 2026-04-18 02:58 | 14.52486 | 121.00487 | 82 ft | 9 kts | 238° |
| 2026-04-18 02:58 | 14.52439 | 121.00435 | 82 ft | 10 kts | 226° |
| 2026-04-18 02:58 | 14.52382 | 121.00397 | 82 ft | 9 kts | 170° |
| 2026-04-18 02:59 | 14.52342 | 121.00428 | 82 ft | 0 kts | 134° |
| 2026-04-18 03:00 | 14.52224 | 121.00550 | 82 ft | 64 kts | 135° |
| 2026-04-18 03:00 | 14.51716 | 121.01073 | 82 ft | 137 kts | 133° |
| 2026-04-18 03:00 | 14.50952 | 121.01862 | 449 ft | 160 kts | 135° |
| 2026-04-18 03:00 | 14.50194 | 121.02638 | 1197 ft | 156 kts | 133° |
| 2026-04-18 03:01 | 14.49441 | 121.03426 | 1898 ft | 155 kts | 134° |
| 2026-04-18 03:01 | 14.48688 | 121.04208 | 2429 ft | 155 kts | 133° |
| 2026-04-18 03:01 | 14.47924 | 121.04999 | 2909 ft | 156 kts | 133° |
| 2026-04-18 03:01 | 14.47159 | 121.05795 | 3358 ft | 160 kts | 133° |
| 2026-04-18 03:02 | 14.46345 | 121.06641 | 3663 ft | 176 kts | 133° |
| 2026-04-18 03:02 | 14.45440 | 121.07583 | 4007 ft | 193 kts | 134° |
| 2026-04-18 03:02 | 14.44272 | 121.08396 | 4356 ft | 213 kts | 161° |
| 2026-04-18 03:02 | 14.42739 | 121.08472 | 4662 ft | 237 kts | 194° |
| 2026-04-18 03:03 | 14.41272 | 121.07600 | 5026 ft | 258 kts | 227° |
| 2026-04-18 03:03 | 14.40109 | 121.06101 | 5523 ft | 275 kts | 232° |
| 2026-04-18 03:03 | 14.38909 | 121.04538 | 6164 ft | 285 kts | 231° |
| 2026-04-18 03:03 | 14.37643 | 121.02927 | 6989 ft | 288 kts | 230° |
| 2026-04-18 03:04 | 14.36325 | 121.01374 | 7754 ft | 291 kts | 220° |
| 2026-04-18 03:04 | 14.34596 | 121.00312 | 8474 ft | 292 kts | 197° |
| 2026-04-18 03:04 | 14.32627 | 120.99851 | 9210 ft | 294 kts | 188° |
| 2026-04-18 03:04 | 14.30610 | 120.99503 | 9915 ft | 298 kts | 188° |
| 2026-04-18 03:05 | 14.28531 | 120.99149 | 10514 ft | 306 kts | 188° |
| 2026-04-18 03:05 | 14.26374 | 120.98769 | 10852 ft | 323 kts | 188° |
| 2026-04-18 03:05 | 14.24089 | 120.98354 | 11230 ft | 337 kts | 189° |
| 2026-04-18 03:05 | 14.21770 | 120.97926 | 11825 ft | 342 kts | 189° |
| 2026-04-18 03:06 | 14.19407 | 120.97487 | 12462 ft | 346 kts | 189° |
| 2026-04-18 03:06 | 14.16995 | 120.97035 | 13052 ft | 351 kts | 189° |
| 2026-04-18 03:06 | 14.14603 | 120.96587 | 13623 ft | 356 kts | 189° |
| 2026-04-18 03:06 | 14.12133 | 120.96125 | 14229 ft | 360 kts | 189° |
| 2026-04-18 03:07 | 14.09660 | 120.95663 | 14808 ft | 363 kts | 189° |
| 2026-04-18 03:07 | 14.07161 | 120.95197 | 15387 ft | 366 kts | 189° |
| 2026-04-18 03:07 | 14.04627 | 120.94811 | 15996 ft | 368 kts | 183° |
| 2026-04-18 03:07 | 14.02057 | 120.94784 | 16533 ft | 371 kts | 174° |
| 2026-04-18 03:08 | 13.99465 | 120.95108 | 17097 ft | 373 kts | 170° |
| 2026-04-18 03:08 | 13.96897 | 120.95533 | 17654 ft | 375 kts | 169° |
| 2026-04-18 03:08 | 13.94303 | 120.95976 | 18205 ft | 378 kts | 169° |
| 2026-04-18 03:08 | 13.91710 | 120.96415 | 18759 ft | 380 kts | 169° |
| 2026-04-18 03:09 | 13.89073 | 120.96855 | 19290 ft | 382 kts | 169° |
| 2026-04-18 03:09 | 13.86457 | 120.97289 | 19821 ft | 384 kts | 169° |
| 2026-04-18 03:09 | 13.83816 | 120.97723 | 20334 ft | 385 kts | 169° |
| 2026-04-18 03:09 | 13.81142 | 120.98161 | 20866 ft | 387 kts | 169° |
| 2026-04-18 03:10 | 13.78484 | 120.98596 | 21395 ft | 388 kts | 169° |
| 2026-04-18 03:10 | 13.75813 | 120.99032 | 21908 ft | 390 kts | 169° |
| 2026-04-18 03:10 | 13.73119 | 120.99472 | 22407 ft | 392 kts | 169° |
| 2026-04-18 03:10 | 13.70424 | 120.99912 | 22904 ft | 394 kts | 169° |
| 2026-04-18 03:11 | 13.67697 | 121.00357 | 23356 ft | 397 kts | 169° |
| 2026-04-18 03:11 | 13.64932 | 121.00808 | 23809 ft | 400 kts | 169° |
| 2026-04-18 03:11 | 13.62172 | 121.01258 | 24245 ft | 403 kts | 169° |
| 2026-04-18 03:11 | 13.59389 | 121.01711 | 24674 ft | 406 kts | 170° |
| 2026-04-18 03:12 | 13.56591 | 121.02168 | 25097 ft | 408 kts | 170° |
| 2026-04-18 03:12 | 13.53736 | 121.02641 | 25519 ft | 411 kts | 168° |
| 2026-04-18 03:12 | 13.50981 | 121.03412 | 25912 ft | 413 kts | 159° |
| 2026-04-18 03:12 | 13.48383 | 121.04627 | 26320 ft | 414 kts | 149° |
| 2026-04-18 03:13 | 13.45937 | 121.06224 | 26733 ft | 415 kts | 145° |
| 2026-04-18 03:13 | 13.43537 | 121.07924 | 27143 ft | 417 kts | 144° |
| 2026-04-18 03:13 | 13.41137 | 121.09641 | 27532 ft | 420 kts | 144° |
| 2026-04-18 03:13 | 13.38745 | 121.11339 | 27899 ft | 422 kts | 145° |
| 2026-04-18 03:14 | 13.36315 | 121.13053 | 28257 ft | 424 kts | 145° |
| 2026-04-18 03:14 | 13.33860 | 121.14777 | 28594 ft | 427 kts | 145° |
| 2026-04-18 03:14 | 13.31396 | 121.16505 | 28947 ft | 428 kts | 145° |
| 2026-04-18 03:14 | 13.28936 | 121.18230 | 29383 ft | 427 kts | 145° |
| 2026-04-18 03:15 | 13.26480 | 121.19953 | 29845 ft | 425 kts | 145° |
| 2026-04-18 03:15 | 13.24057 | 121.21652 | 30291 ft | 424 kts | 145° |
| 2026-04-18 03:15 | 13.21609 | 121.23370 | 30736 ft | 421 kts | 145° |
| 2026-04-18 03:15 | 13.19204 | 121.25056 | 31133 ft | 420 kts | 145° |
| 2026-04-18 03:16 | 13.16793 | 121.26746 | 31486 ft | 420 kts | 145° |
| 2026-04-18 03:16 | 13.14340 | 121.28465 | 31797 ft | 421 kts | 145° |
| 2026-04-18 03:16 | 13.11911 | 121.30167 | 32066 ft | 423 kts | 145° |
| 2026-04-18 03:16 | 13.09480 | 121.31869 | 32352 ft | 424 kts | 145° |
| 2026-04-18 03:17 | 13.07068 | 121.33558 | 32647 ft | 424 kts | 145° |
| 2026-04-18 03:17 | 13.04629 | 121.35265 | 32949 ft | 425 kts | 145° |
| 2026-04-18 03:17 | 12.99700 | 121.38715 | 32995 ft | 426 kts | 145° |
| 2026-04-18 03:18 | 12.94828 | 121.42122 | 32991 ft | 425 kts | 146° |
| 2026-04-18 03:18 | 12.89932 | 121.45545 | 32979 ft | 425 kts | 146° |
| 2026-04-18 03:19 | 12.85011 | 121.48984 | 32968 ft | 425 kts | 146° |
| 2026-04-18 03:19 | 12.80095 | 121.52417 | 32958 ft | 426 kts | 145° |
| 2026-04-18 03:20 | 12.75182 | 121.55846 | 32957 ft | 427 kts | 145° |
| 2026-04-18 03:20 | 12.70280 | 121.59267 | 32957 ft | 426 kts | 145° |
| 2026-04-18 03:21 | 12.65352 | 121.62705 | 32957 ft | 426 kts | 145° |
| 2026-04-18 03:21 | 12.60470 | 121.66109 | 32957 ft | 425 kts | 146° |
| 2026-04-18 03:22 | 12.55576 | 121.69520 | 32957 ft | 425 kts | 146° |
| 2026-04-18 03:22 | 12.50668 | 121.72939 | 32956 ft | 425 kts | 146° |
| 2026-04-18 03:23 | 12.45781 | 121.76341 | 32957 ft | 425 kts | 146° |
| 2026-04-18 03:23 | 12.40873 | 121.79755 | 32957 ft | 426 kts | 146° |
| 2026-04-18 03:24 | 12.35801 | 121.82902 | 32955 ft | 426 kts | 152° |
| 2026-04-18 03:24 | 12.30394 | 121.85460 | 32947 ft | 426 kts | 156° |
| 2026-04-18 03:25 | 12.24943 | 121.87836 | 32657 ft | 425 kts | 156° |
| 2026-04-18 03:25 | 12.22212 | 121.89025 | 32323 ft | 423 kts | 156° |
| 2026-04-18 03:25 | 12.19518 | 121.90199 | 31863 ft | 421 kts | 156° |
| 2026-04-18 03:26 | 12.16817 | 121.91376 | 31290 ft | 420 kts | 156° |
| 2026-04-18 03:26 | 12.14138 | 121.92545 | 30671 ft | 421 kts | 156° |
| 2026-04-18 03:26 | 12.11422 | 121.93729 | 30017 ft | 423 kts | 156° |
| 2026-04-18 03:26 | 12.08714 | 121.94909 | 29346 ft | 425 kts | 156° |
| 2026-04-18 03:27 | 12.05987 | 121.96098 | 28666 ft | 427 kts | 156° |
| 2026-04-18 03:27 | 12.03242 | 121.97293 | 28123 ft | 425 kts | 156° |
| 2026-04-18 03:27 | 12.00530 | 121.98475 | 27664 ft | 422 kts | 156° |
| 2026-04-18 03:27 | 11.97840 | 121.99647 | 27205 ft | 418 kts | 156° |
| 2026-04-18 03:28 | 11.95170 | 122.00809 | 26748 ft | 415 kts | 156° |
| 2026-04-18 03:28 | 11.92514 | 122.01965 | 26285 ft | 412 kts | 156° |
| 2026-04-18 03:28 | 11.89869 | 122.03117 | 25820 ft | 410 kts | 156° |
| 2026-04-18 03:28 | 11.87230 | 122.04264 | 25354 ft | 407 kts | 156° |
| 2026-04-18 03:29 | 11.84631 | 122.05396 | 24894 ft | 404 kts | 156° |
| 2026-04-18 03:29 | 11.82043 | 122.06522 | 24432 ft | 402 kts | 155° |
| 2026-04-18 03:29 | 11.79451 | 122.07649 | 23971 ft | 399 kts | 155° |
| 2026-04-18 03:29 | 11.76894 | 122.08760 | 23516 ft | 397 kts | 155° |
| 2026-04-18 03:30 | 11.74391 | 122.09848 | 23076 ft | 394 kts | 155° |
| 2026-04-18 03:30 | 11.71852 | 122.10952 | 22621 ft | 392 kts | 155° |
| 2026-04-18 03:30 | 11.69355 | 122.12038 | 22176 ft | 389 kts | 155° |
| 2026-04-18 03:30 | 11.66883 | 122.13113 | 21732 ft | 388 kts | 155° |
| 2026-04-18 03:31 | 11.64373 | 122.14204 | 21272 ft | 386 kts | 155° |
| 2026-04-18 03:31 | 11.61919 | 122.15270 | 20815 ft | 385 kts | 155° |
| 2026-04-18 03:31 | 11.59437 | 122.16349 | 20353 ft | 383 kts | 155° |
| 2026-04-18 03:31 | 11.56997 | 122.17408 | 19894 ft | 382 kts | 155° |
| 2026-04-18 03:32 | 11.54546 | 122.18472 | 19444 ft | 380 kts | 155° |
| 2026-04-18 03:32 | 11.52128 | 122.19522 | 19005 ft | 379 kts | 155° |
| 2026-04-18 03:32 | 11.49686 | 122.20582 | 18547 ft | 377 kts | 155° |
| 2026-04-18 03:32 | 11.47265 | 122.21631 | 18092 ft | 376 kts | 154° |
| 2026-04-18 03:33 | 11.44886 | 122.22663 | 17641 ft | 375 kts | 154° |
| 2026-04-18 03:33 | 11.42477 | 122.23709 | 17187 ft | 373 kts | 155° |
| 2026-04-18 03:33 | 11.40088 | 122.24747 | 16748 ft | 371 kts | 155° |
| 2026-04-18 03:33 | 11.37690 | 122.25787 | 16297 ft | 370 kts | 155° |
| 2026-04-18 03:34 | 11.35327 | 122.26813 | 15850 ft | 368 kts | 155° |
| 2026-04-18 03:34 | 11.32965 | 122.27837 | 15402 ft | 366 kts | 155° |
| 2026-04-18 03:34 | 11.30648 | 122.28839 | 14957 ft | 365 kts | 155° |
| 2026-04-18 03:34 | 11.28322 | 122.29848 | 14511 ft | 363 kts | 155° |
| 2026-04-18 03:35 | 11.25985 | 122.30859 | 14068 ft | 361 kts | 155° |
| 2026-04-18 03:35 | 11.23670 | 122.31862 | 13628 ft | 359 kts | 155° |
| 2026-04-18 03:35 | 11.21381 | 122.32854 | 13191 ft | 356 kts | 155° |
| 2026-04-18 03:35 | 11.19113 | 122.33836 | 12988 ft | 346 kts | 155° |
| 2026-04-18 03:36 | 11.16911 | 122.34739 | 12873 ft | 333 kts | 160° |
| 2026-04-18 03:36 | 11.14708 | 122.35396 | 12726 ft | 323 kts | 166° |
| 2026-04-18 03:36 | 11.12525 | 122.35866 | 12313 ft | 323 kts | 167° |
| 2026-04-18 03:36 | 11.10319 | 122.36303 | 11963 ft | 319 kts | 168° |
| 2026-04-18 03:37 | 11.08142 | 122.36730 | 11654 ft | 315 kts | 167° |
| 2026-04-18 03:37 | 11.05973 | 122.37160 | 11203 ft | 316 kts | 167° |
| 2026-04-18 03:37 | 11.03812 | 122.37590 | 10898 ft | 312 kts | 167° |
| 2026-04-18 03:37 | 11.01686 | 122.38015 | 10503 ft | 311 kts | 167° |
| 2026-04-18 03:38 | 10.99568 | 122.38442 | 10071 ft | 312 kts | 167° |
| 2026-04-18 03:38 | 10.97441 | 122.38869 | 9760 ft | 307 kts | 167° |
| 2026-04-18 03:38 | 10.95348 | 122.39288 | 9449 ft | 303 kts | 168° |
| 2026-04-18 03:38 | 10.93231 | 122.39432 | 9084 ft | 303 kts | 182° |
| 2026-04-18 03:39 | 10.91152 | 122.39054 | 8655 ft | 305 kts | 193° |
| 2026-04-18 03:39 | 10.89115 | 122.38500 | 8259 ft | 301 kts | 194° |
| 2026-04-18 03:39 | 10.87098 | 122.37928 | 7877 ft | 293 kts | 194° |
| 2026-04-18 03:39 | 10.85138 | 122.37378 | 7528 ft | 290 kts | 193° |
| 2026-04-18 03:40 | 10.83213 | 122.36845 | 7188 ft | 288 kts | 193° |
| 2026-04-18 03:40 | 10.81270 | 122.36311 | 6848 ft | 286 kts | 193° |
| 2026-04-18 03:40 | 10.79341 | 122.35786 | 6508 ft | 284 kts | 193° |
| 2026-04-18 03:40 | 10.77431 | 122.35269 | 6173 ft | 283 kts | 193° |
| 2026-04-18 03:41 | 10.75522 | 122.34753 | 5840 ft | 281 kts | 193° |
| 2026-04-18 03:41 | 10.73650 | 122.34245 | 5511 ft | 280 kts | 193° |
| 2026-04-18 03:41 | 10.71757 | 122.33733 | 5175 ft | 278 kts | 193° |
| 2026-04-18 03:41 | 10.69884 | 122.33227 | 4863 ft | 275 kts | 193° |
| 2026-04-18 03:42 | 10.68036 | 122.32841 | 4735 ft | 263 kts | 178° |
| 2026-04-18 03:42 | 10.66354 | 122.33328 | 4593 ft | 247 kts | 141° |
| 2026-04-18 03:42 | 10.65308 | 122.34642 | 4294 ft | 239 kts | 109° |
| 2026-04-18 03:42 | 10.64800 | 122.36220 | 4022 ft | 236 kts | 105° |
| 2026-04-18 03:43 | 10.64298 | 122.37811 | 3739 ft | 235 kts | 107° |
| 2026-04-18 03:43 | 10.63774 | 122.39380 | 3451 ft | 233 kts | 105° |
| 2026-04-18 03:43 | 10.63662 | 122.40996 | 3103 ft | 229 kts | 70° |
| 2026-04-18 03:43 | 10.64503 | 122.42278 | 3018 ft | 215 kts | 37° |
| 2026-04-18 03:44 | 10.65811 | 122.42934 | 3007 ft | 203 kts | 19° |
| 2026-04-18 03:44 | 10.67108 | 122.43378 | 3064 ft | 190 kts | 19° |
| 2026-04-18 03:44 | 10.68338 | 122.43812 | 2911 ft | 180 kts | 20° |
| 2026-04-18 03:44 | 10.69491 | 122.44228 | 2774 ft | 168 kts | 20° |
| 2026-04-18 03:45 | 10.70554 | 122.44616 | 2610 ft | 160 kts | 20° |
| 2026-04-18 03:45 | 10.71592 | 122.44998 | 2352 ft | 153 kts | 20° |
| 2026-04-18 03:45 | 10.72591 | 122.45367 | 2171 ft | 150 kts | 20° |
| 2026-04-18 03:45 | 10.73548 | 122.45719 | 1952 ft | 145 kts | 20° |
| 2026-04-18 03:46 | 10.74499 | 122.46072 | 1758 ft | 144 kts | 20° |
| 2026-04-18 03:46 | 10.75445 | 122.46423 | 1568 ft | 144 kts | 19° |
| 2026-04-18 03:46 | 10.76395 | 122.46774 | 1374 ft | 143 kts | 19° |
| 2026-04-18 03:46 | 10.77329 | 122.47119 | 1186 ft | 143 kts | 19° |
| 2026-04-18 03:47 | 10.78258 | 122.47463 | 994 ft | 142 kts | 18° |
| 2026-04-18 03:47 | 10.79192 | 122.47817 | 797 ft | 142 kts | 20° |
| 2026-04-18 03:47 | 10.80125 | 122.48164 | 631 ft | 141 kts | 19° |
| 2026-04-18 03:47 | 10.81045 | 122.48503 | 441 ft | 141 kts | 19° |
| 2026-04-18 03:48 | 10.81957 | 122.48839 | 253 ft | 135 kts | 19° |
| 2026-04-18 03:48 | 10.82812 | 122.49153 | 176 ft | 119 kts | 20° |
| 2026-04-18 03:48 | 10.83430 | 122.49384 | 175 ft | 69 kts | 20° |
| 2026-04-18 03:48 | 10.83767 | 122.49508 | 175 ft | 43 kts | 20° |
| 2026-04-18 03:49 | 10.84035 | 122.49608 | 175 ft | 38 kts | 20° |
| 2026-04-18 03:49 | 10.84215 | 122.49675 | 175 ft | 16 kts | 21° |
| 2026-04-18 03:49 | 10.84290 | 122.49724 | 175 ft | 11 kts | 52° |
| 2026-04-18 03:49 | 10.84334 | 122.49744 | 175 ft | 4 kts | 324° |
| 2026-04-18 03:50 | 10.84324 | 122.49716 | 175 ft | 6 kts | 205° |
| 2026-04-18 03:50 | 10.84259 | 122.49692 | 175 ft | 13 kts | 201° |
| 2026-04-18 03:50 | 10.84155 | 122.49653 | 175 ft | 18 kts | 200° |
| 2026-04-18 03:50 | 10.84026 | 122.49605 | 175 ft | 20 kts | 200° |
| 2026-04-18 03:51 | 10.83881 | 122.49551 | 175 ft | 23 kts | 200° |
| 2026-04-18 03:51 | 10.83723 | 122.49493 | 175 ft | 24 kts | 200° |
| 2026-04-18 03:51 | 10.83605 | 122.49451 | 175 ft | 13 kts | 183° |
| 2026-04-18 03:51 | 10.83544 | 122.49517 | 175 ft | 13 kts | 110° |
| 2026-04-18 03:52 | 10.83511 | 122.49608 | 175 ft | 13 kts | 111° |
| 2026-04-18 03:52 | 10.83466 | 122.49676 | 175 ft | 12 kts | 163° |
| 2026-04-18 03:52 | 10.83380 | 122.49657 | 175 ft | 13 kts | 202° |
| 2026-04-18 03:52 | 10.83293 | 122.49623 | 175 ft | 13 kts | 199° |
| 2026-04-18 03:53 | 10.83199 | 122.49590 | 175 ft | 14 kts | 199° |
| 2026-04-18 03:53 | 10.83128 | 122.49564 | 175 ft | 8 kts | 199° |
| 2026-04-18 03:53 | 10.83081 | 122.49555 | 175 ft | 6 kts | 143° |
| 2026-04-18 03:53 | 10.83066 | 122.49594 | 175 ft | 3 kts | 109° |
| 2026-04-18 03:54 | 10.83058 | 122.49616 | 175 ft | 2 kts | 109° |
| 2026-04-18 03:54 | 10.83053 | 122.49628 | 175 ft | 1 kts | 110° |
| 2026-04-18 03:54 | 10.83053 | 122.49629 | 175 ft | 0 kts | 110° |